Mini Explorer — FGD5276 — position and weather

sailwx.info

Track history (hours):
 
Tides and Currents Weather Stations Pressure Air Temp Water Temp Dewpoint Dewpoint Depression Visibility Wind Speed Wind Dir Waves Ship Positions

Mini Explorer

Last reported at 2015-Jul-20 14:06 UTC. Time now 2015-Jul-28 19:41 UTC.
Position N 46°26' W 001°43'.
Warning: this ship's position is 8 days out of date.

Length 6 m.

Type: Sailing vessel. MMSI: 227568370.

Date/timePositionNaut miles runAvg speedWind from/ knotsBaromVisibWave heightAir tempDewpointWater temp
2015-Jul-20 14:06N 46°26' W 001°43'3 5.0
2015-Jul-20 13:31N 46°27' W 001°47'5 4.8
2015-Jul-20 12:33N 46°30' W 001°52'81 5.8
2015-Jul-19 22:32N 47°31' W 003°12'7 6.7
2015-Jul-19 21:33N 47°36' W 003°18'6 6.2
2015-Jul-19 20:33N 47°41' W 003°22'  
2015-Jul-12 13:33N 47°44' W 003°22'5 5.1
2015-Jul-12 12:31N 47°39' W 003°26'4 3.7
2015-Jul-12 11:33N 47°36' W 003°25'6 2.6
2015-Jul-12 09:26N 47°41' W 003°26'2 1.8
2015-Jul-12 08:33N 47°41' W 003°23'  
Track history (hours):
 
Tides and Currents Weather Stations Pressure Air Temp Water Temp Dewpoint Dewpoint Depression Visibility Wind Speed Wind Dir Waves Ship Positions

Mini Explorer

Last reported at 2015-Jul-20 14:06 UTC. Time now 2015-Jul-28 19:41 UTC.
Position N 46°26' W 001°43'.
Warning: this ship's position is 8 days out of date.

Length 6 m.

Type: Sailing vessel. MMSI: 227568370.

Date/timePositionNaut miles runAvg speedWind from/ knotsBaromVisibWave heightAir tempDewpointWater temp
2015-Jul-20 14:06N 46°26' W 001°43'3 5.0
2015-Jul-20 13:31N 46°27' W 001°47'5 4.8
2015-Jul-20 12:33N 46°30' W 001°52'81 5.8
2015-Jul-19 22:32N 47°31' W 003°12'7 6.7
2015-Jul-19 21:33N 47°36' W 003°18'6 6.2
2015-Jul-19 20:33N 47°41' W 003°22'  
2015-Jul-12 13:33N 47°44' W 003°22'5 5.1
2015-Jul-12 12:31N 47°39' W 003°26'4 3.7
2015-Jul-12 11:33N 47°36' W 003°25'6 2.6
2015-Jul-12 09:26N 47°41' W 003°26'2 1.8
2015-Jul-12 08:33N 47°41' W 003°23'  

Dump ship's entire track history